Time;durP1;ratioP1;P1;durP2;ratioP2;P2;SDS_P1;SDS_P2;PMS_P1;PMS_P2;Temp;Humidity;BMP_temperature;BMP_pressure;BME280_temperature;BME280_humidity;BME280_pressure;Samples;Min_cycle;Max_cycle;Signal;HPM_P1;HPM_P2
2022/03/25 00:00:16;;;;;;;37.17;24.60;;;7.10;99.90;;;;;;5037421;28;20226;-76
2022/03/25 00:02:43;;;;;;;27.80;18.40;;;7.20;99.90;;;;;;5038425;28;20200;-76
2022/03/25 00:05:10;;;;;;;32.00;20.20;;;7.10;99.90;;;;;;5043597;28;20200;-76
2022/03/25 00:07:38;;;;;;;23.90;16.50;;;7.20;99.90;;;;;;5042390;28;20196;-76
2022/03/25 00:10:06;;;;;;;28.07;17.90;;;7.30;99.90;;;;;;5037319;28;20283;-76
2022/03/25 00:12:33;;;;;;;24.23;16.70;;;7.70;99.90;;;;;;5052503;28;20701;-76
2022/03/25 00:15:01;;;;;;;28.27;18.20;;;8.00;99.90;;;;;;5081250;28;20192;-76
2022/03/25 00:17:28;;;;;;;26.30;16.47;;;8.20;99.90;;;;;;5045440;28;20290;-76
2022/03/25 00:19:55;;;;;;;30.83;18.83;;;8.20;99.90;;;;;;5041668;28;20287;-76
2022/03/25 00:22:22;;;;;;;28.87;16.63;;;8.30;99.90;;;;;;5042990;28;20305;-76
2022/03/25 00:24:49;;;;;;;28.77;17.17;;;8.10;99.90;;;;;;5071450;28;20257;-76
2022/03/25 00:27:17;;;;;;;24.47;16.47;;;8.00;99.90;;;;;;5068678;28;20234;-76
2022/03/25 00:29:44;;;;;;;25.00;16.20;;;8.20;99.90;;;;;;5044905;28;20711;-76
2022/03/25 00:32:13;;;;;;;23.93;16.23;;;8.20;99.90;;;;;;5044971;28;20633;-76
2022/03/25 00:34:39;;;;;;;26.43;16.57;;;8.10;99.90;;;;;;5045132;28;20279;-76
2022/03/25 00:37:06;;;;;;;26.83;17.57;;;8.10;99.90;;;;;;5043237;28;20243;-76
2022/03/25 00:39:33;;;;;;;26.83;17.77;;;8.00;99.90;;;;;;5058481;28;20277;-76
2022/03/25 00:42:00;;;;;;;27.87;17.50;;;8.00;99.90;;;;;;5060996;28;20209;-77
2022/03/25 00:44:27;;;;;;;27.10;17.33;;;8.10;99.90;;;;;;5037482;28;20288;-76
2022/03/25 00:46:54;;;;;;;25.17;16.90;;;8.00;99.90;;;;;;5050885;28;20294;-76
2022/03/25 00:49:22;;;;;;;26.50;18.27;;;8.00;99.90;;;;;;5054127;28;20297;-76
2022/03/25 00:51:49;;;;;;;28.90;17.83;;;8.00;99.90;;;;;;5057617;28;20234;-76
2022/03/25 00:54:17;;;;;;;26.27;16.77;;;8.10;99.90;;;;;;5046131;28;20283;-75
2022/03/25 00:56:43;;;;;;;25.67;17.10;;;8.10;99.90;;;;;;5050552;28;20227;-77
2022/03/25 00:59:10;;;;;;;26.37;17.27;;;8.20;99.90;;;;;;5039548;28;20220;-76
2022/03/25 01:01:38;;;;;;;27.63;17.30;;;8.00;99.90;;;;;;5051581;28;20286;-76
2022/03/25 01:04:05;;;;;;;29.43;18.93;;;8.20;99.90;;;;;;5044680;28;20202;-76
2022/03/25 01:06:34;;;;;;;27.33;17.00;;;8.20;99.90;;;;;;5050040;28;20200;-77
2022/03/25 01:09:01;;;;;;;27.43;17.53;;;8.20;99.90;;;;;;5043473;28;20711;-76
2022/03/25 01:11:28;;;;;;;28.53;17.63;;;8.20;99.90;;;;;;5055270;28;20296;-76
2022/03/25 01:13:55;;;;;;;28.20;18.10;;;8.10;99.90;;;;;;5049784;28;20636;-76
2022/03/25 01:16:22;;;;;;;31.17;17.90;;;8.10;99.90;;;;;;5047057;28;20295;-77
2022/03/25 01:18:49;;;;;;;28.47;17.77;;;8.00;99.90;;;;;;5032821;28;20202;-76
2022/03/25 01:21:17;;;;;;;29.87;17.77;;;8.10;99.90;;;;;;5046571;28;20948;-76
2022/03/25 01:23:48;;;;;;;29.87;18.10;;;8.00;99.90;;;;;;5039316;28;20203;-76
2022/03/25 01:26:15;;;;;;;26.70;18.00;;;8.10;99.90;;;;;;5054868;28;20719;-76
2022/03/25 01:28:42;;;;;;;26.73;17.17;;;8.10;99.90;;;;;;5074790;28;20382;-76
2022/03/25 01:31:09;;;;;;;30.20;17.57;;;8.10;99.90;;;;;;5057074;28;20227;-77
2022/03/25 01:33:37;;;;;;;26.40;17.40;;;8.10;99.90;;;;;;5053166;28;20576;-76
2022/03/25 01:36:05;;;;;;;28.57;17.60;;;8.10;99.90;;;;;;5038748;28;20204;-77
2022/03/25 01:38:32;;;;;;;28.93;18.53;;;8.20;99.90;;;;;;5050764;28;20284;-76
2022/03/25 01:41:01;;;;;;;27.87;17.63;;;8.30;99.90;;;;;;5040910;28;20232;-76
2022/03/25 01:43:28;;;;;;;28.50;17.43;;;8.20;99.90;;;;;;5046191;28;20283;-76
2022/03/25 01:45:55;;;;;;;26.23;17.53;;;8.10;99.90;;;;;;5051849;28;20689;-76
2022/03/25 01:48:23;;;;;;;27.03;17.30;;;8.10;99.90;;;;;;5041578;28;20282;-76
2022/03/25 01:50:50;;;;;;;30.03;17.93;;;8.00;99.90;;;;;;5044702;28;20203;-76
2022/03/25 01:53:19;;;;;;;29.73;17.63;;;7.90;99.90;;;;;;5040654;28;20207;-77
2022/03/25 01:55:51;;;;;;;29.43;18.30;;;8.00;99.90;;;;;;5050314;28;20237;-76
2022/03/25 01:58:20;;;;;;;33.20;18.23;;;8.10;99.90;;;;;;5044380;28;20218;-76
2022/03/25 02:00:47;;;;;;;28.70;17.73;;;8.00;99.90;;;;;;5044459;28;20207;-76
2022/03/25 02:03:14;;;;;;;30.20;18.07;;;8.00;99.90;;;;;;5051078;28;20289;-76
2022/03/25 02:05:41;;;;;;;29.10;18.80;;;7.90;99.90;;;;;;5050160;28;20283;-76
2022/03/25 02:08:09;;;;;;;30.33;18.23;;;8.00;99.90;;;;;;5046318;28;20701;-76
2022/03/25 02:10:36;;;;;;;29.23;17.70;;;8.00;99.90;;;;;;5054009;28;20204;-77
2022/03/25 02:13:03;;;;;;;31.73;18.40;;;8.10;99.90;;;;;;5055827;28;20274;-76
2022/03/25 02:15:38;;;;;;;28.57;17.37;;;8.00;99.90;;;;;;5063869;28;20232;-76
2022/03/25 02:18:07;;;;;;;30.83;18.90;;;8.10;99.90;;;;;;5045756;28;20630;-76
2022/03/25 02:20:34;;;;;;;29.50;18.03;;;8.10;99.90;;;;;;5058155;28;20232;-76
2022/03/25 02:23:04;;;;;;;29.50;18.03;;;8.00;99.90;;;;;;5044322;28;20235;-76
2022/03/25 02:25:31;;;;;;;38.90;19.83;;;7.90;99.90;;;;;;5046449;28;20250;-76
2022/03/25 02:27:59;;;;;;;27.47;17.07;;;7.80;99.90;;;;;;5036150;28;20232;-76
2022/03/25 02:30:27;;;;;;;29.23;18.23;;;7.90;99.90;;;;;;5046992;28;20699;-76
2022/03/25 02:32:57;;;;;;;32.00;18.77;;;7.70;99.90;;;;;;5033424;28;20196;-78
2022/03/25 02:35:36;;;;;;;30.23;17.77;;;7.70;99.90;;;;;;5042636;28;20577;-77
2022/03/25 02:38:05;;;;;;;32.93;19.00;;;7.60;99.90;;;;;;5063060;28;20659;-77
2022/03/25 02:40:32;;;;;;;31.03;19.60;;;7.50;99.90;;;;;;5047658;28;20283;-77
2022/03/25 02:42:59;;;;;;;29.83;18.00;;;7.50;99.90;;;;;;5043760;28;20287;-77
2022/03/25 02:45:26;;;;;;;31.50;18.47;;;7.50;99.90;;;;;;5045710;28;20227;-77
2022/03/25 02:47:53;;;;;;;30.73;18.23;;;7.60;99.90;;;;;;5052805;28;20231;-77
2022/03/25 02:50:21;;;;;;;31.67;19.20;;;7.70;99.90;;;;;;5054124;28;20250;-77
2022/03/25 02:52:48;;;;;;;33.73;18.97;;;7.80;99.90;;;;;;5065412;28;20205;-77
2022/03/25 02:55:16;;;;;;;29.43;18.10;;;7.70;99.90;;;;;;5050379;28;20231;-77
2022/03/25 02:57:43;;;;;;;29.70;18.67;;;7.60;99.90;;;;;;5059268;28;20281;-77
2022/03/25 03:00:11;;;;;;;29.10;18.80;;;7.60;99.90;;;;;;5054164;28;20258;-77
2022/03/25 03:02:38;;;;;;;28.83;18.73;;;7.50;99.90;;;;;;5052959;28;20210;-76
2022/03/25 03:05:07;;;;;;;30.63;18.77;;;7.40;99.90;;;;;;5053007;28;20246;-77
2022/03/25 03:07:35;;;;;;;29.30;18.47;;;7.40;99.90;;;;;;5054567;28;20210;-76
2022/03/25 03:10:03;;;;;;;31.53;18.80;;;7.30;99.90;;;;;;5053150;28;20642;-77
2022/03/25 03:12:32;;;;;;;31.17;18.90;;;7.30;99.90;;;;;;5051353;28;20259;-77
2022/03/25 03:14:59;;;;;;;28.27;17.80;;;7.20;99.90;;;;;;5047520;28;20393;-77
2022/03/25 03:17:26;;;;;;;33.27;19.70;;;7.30;99.90;;;;;;5042611;28;20322;-77
2022/03/25 03:19:53;;;;;;;29.67;18.63;;;7.30;99.90;;;;;;5048621;28;20196;-77
2022/03/25 03:22:21;;;;;;;33.90;18.93;;;7.30;99.90;;;;;;5057917;28;20208;-77
2022/03/25 03:24:48;;;;;;;31.33;18.23;;;7.30;99.90;;;;;;5044422;28;20302;-77
2022/03/25 03:27:15;;;;;;;31.43;18.73;;;7.30;99.90;;;;;;5037089;28;20196;-77
2022/03/25 03:29:43;;;;;;;33.77;19.70;;;7.30;99.90;;;;;;5048363;28;20219;-77
2022/03/25 03:32:11;;;;;;;30.87;18.63;;;7.30;99.90;;;;;;5064273;28;20230;-77
2022/03/25 03:34:38;;;;;;;34.43;19.73;;;7.30;99.90;;;;;;5060145;28;20227;-77
2022/03/25 03:37:05;;;;;;;35.33;19.50;;;7.30;99.90;;;;;;5037783;28;20595;-77
2022/03/25 03:39:32;;;;;;;31.00;19.20;;;7.40;99.90;;;;;;5083063;28;20220;-76
2022/03/25 03:41:59;;;;;;;32.73;19.17;;;7.50;99.90;;;;;;5041229;28;20208;-77
2022/03/25 03:44:26;;;;;;;31.50;19.70;;;7.60;99.90;;;;;;5037545;28;20250;-77
2022/03/25 03:46:55;;;;;;;34.23;19.03;;;7.70;99.90;;;;;;5048721;28;20294;-77
2022/03/25 03:49:22;;;;;;;32.90;18.73;;;7.80;99.90;;;;;;5052125;28;20270;-77
2022/03/25 03:51:49;;;;;;;37.63;20.30;;;7.80;99.90;;;;;;5049373;28;20231;-77
2022/03/25 03:54:16;;;;;;;32.23;19.80;;;7.70;99.90;;;;;;5048509;28;20203;-77
2022/03/25 03:56:43;;;;;;;34.93;20.33;;;7.70;99.90;;;;;;5046290;28;20203;-77
2022/03/25 03:59:10;;;;;;;32.10;19.97;;;7.70;99.90;;;;;;5045023;28;20277;-77
2022/03/25 04:01:37;;;;;;;32.03;20.53;;;7.70;99.90;;;;;;5034879;28;20235;-76
2022/03/25 04:04:06;;;;;;;35.80;21.03;;;7.60;99.90;;;;;;5043374;28;20283;-77
2022/03/25 04:06:33;;;;;;;34.70;20.17;;;7.70;99.90;;;;;;5056470;28;20196;-77
2022/03/25 04:09:00;;;;;;;34.47;21.03;;;7.80;99.90;;;;;;5035550;28;20200;-77
2022/03/25 04:11:27;;;;;;;35.43;21.33;;;7.90;99.90;;;;;;5044969;28;20613;-77
2022/03/25 04:13:54;;;;;;;33.77;20.27;;;7.80;99.90;;;;;;5049464;28;20614;-77
2022/03/25 04:16:21;;;;;;;33.30;19.80;;;7.60;99.90;;;;;;5050784;28;20678;-77
2022/03/25 04:18:48;;;;;;;33.00;20.17;;;7.80;99.90;;;;;;5051045;28;20200;-77
2022/03/25 04:21:17;;;;;;;36.03;20.93;;;7.80;99.90;;;;;;5034547;28;20246;-77
2022/03/25 04:23:43;;;;;;;35.73;21.13;;;7.80;99.90;;;;;;5043239;28;20223;-77
2022/03/25 04:26:10;;;;;;;35.33;19.97;;;7.70;99.90;;;;;;5051073;28;20286;-76
2022/03/25 04:28:37;;;;;;;35.73;21.17;;;7.70;99.90;;;;;;5037101;28;20200;-77
2022/03/25 04:31:04;;;;;;;34.00;20.60;;;7.60;99.90;;;;;;5042477;28;20310;-77
2022/03/25 04:33:33;;;;;;;36.37;21.63;;;7.60;99.90;;;;;;5042349;28;20669;-77
2022/03/25 04:36:00;;;;;;;36.17;20.60;;;7.70;99.90;;;;;;5048106;28;20204;-76
2022/03/25 04:38:28;;;;;;;34.70;21.03;;;7.70;99.90;;;;;;5051300;28;20249;-77
2022/03/25 04:40:55;;;;;;;36.83;21.40;;;7.80;99.90;;;;;;5042269;28;20250;-77
2022/03/25 04:43:22;;;;;;;36.57;21.77;;;7.90;99.90;;;;;;5047543;28;20291;-76
2022/03/25 04:45:49;;;;;;;37.00;21.60;;;7.70;99.90;;;;;;5033237;28;20232;-77
2022/03/25 04:48:16;;;;;;;39.50;21.40;;;7.70;99.90;;;;;;5031701;28;20235;-77
2022/03/25 04:50:44;;;;;;;39.63;22.40;;;7.70;99.90;;;;;;5060563;28;20250;-77
2022/03/25 04:53:11;;;;;;;41.03;21.63;;;7.70;99.90;;;;;;5054417;28;20207;-76
2022/03/25 04:55:39;;;;;;;36.43;21.53;;;7.80;99.90;;;;;;5050215;28;20195;-77
2022/03/25 04:58:06;;;;;;;39.10;22.50;;;7.60;99.90;;;;;;5050233;28;20969;-77
2022/03/25 05:00:35;;;;;;;36.87;22.10;;;7.60;99.90;;;;;;5053974;28;20295;-77
2022/03/25 05:03:01;;;;;;;37.77;22.17;;;7.70;99.90;;;;;;5046912;28;20269;-77
2022/03/25 05:05:28;;;;;;;36.90;22.10;;;7.70;99.90;;;;;;5047298;28;20236;-77
2022/03/25 05:07:55;;;;;;;37.93;23.20;;;7.80;99.90;;;;;;5041042;28;20294;-77
2022/03/25 05:10:22;;;;;;;37.47;22.43;;;7.80;99.90;;;;;;5057180;28;20223;-77
2022/03/25 05:12:51;;;;;;;37.23;22.40;;;7.90;99.90;;;;;;5042109;28;20295;-77
2022/03/25 05:15:18;;;;;;;38.70;22.63;;;7.80;99.90;;;;;;5051202;28;20203;-77
2022/03/25 05:17:47;;;;;;;37.53;22.33;;;7.60;99.90;;;;;;5051249;28;20287;-77
2022/03/25 05:20:16;;;;;;;37.50;21.53;;;7.60;99.90;;;;;;5042420;28;20212;-77
2022/03/25 05:22:43;;;;;;;40.13;23.70;;;7.60;99.90;;;;;;5044908;28;20195;-77
2022/03/25 05:25:10;;;;;;;39.83;23.30;;;7.80;99.90;;;;;;5039225;28;20232;-77
2022/03/25 05:27:45;;;;;;;38.00;23.43;;;7.90;99.90;;;;;;5046595;28;20235;-76
2022/03/25 05:30:14;;;;;;;35.47;22.03;;;7.80;99.90;;;;;;5046719;28;20259;-77
2022/03/25 05:32:42;;;;;;;42.90;22.53;;;7.70;99.90;;;;;;5043511;28;20201;-77
2022/03/25 05:35:10;;;;;;;38.80;22.97;;;7.70;99.90;;;;;;5048582;28;20209;-77
2022/03/25 05:37:38;;;;;;;39.23;22.77;;;7.50;99.90;;;;;;5037560;28;20582;-77
2022/03/25 05:40:07;;;;;;;37.93;22.80;;;7.60;99.90;;;;;;5049434;28;20567;-77
2022/03/25 05:42:35;;;;;;;40.83;22.97;;;7.50;99.90;;;;;;5042919;28;20234;-77
2022/03/25 05:45:02;;;;;;;39.57;23.03;;;7.50;99.90;;;;;;5042380;28;20284;-76
2022/03/25 05:47:30;;;;;;;39.50;22.77;;;7.50;99.90;;;;;;5052240;28;20737;-78
2022/03/25 05:49:57;;;;;;;39.27;22.87;;;7.50;99.90;;;;;;5046885;28;20280;-77
2022/03/25 05:52:25;;;;;;;45.23;22.90;;;7.40;99.90;;;;;;5053117;28;20195;-76
2022/03/25 05:54:52;;;;;;;37.87;22.83;;;7.40;99.90;;;;;;5044534;28;20591;-77
2022/03/25 05:57:19;;;;;;;40.43;23.20;;;7.30;99.90;;;;;;5043168;28;20200;-77
2022/03/25 05:59:46;;;;;;;42.30;24.17;;;7.30;99.90;;;;;;5038327;28;20295;-77
2022/03/25 06:02:13;;;;;;;39.70;22.87;;;7.30;99.90;;;;;;5044770;28;20200;-76
2022/03/25 06:04:42;;;;;;;40.60;23.47;;;7.20;99.90;;;;;;5044598;28;20224;-76
2022/03/25 06:07:12;;;;;;;41.17;23.50;;;7.10;99.90;;;;;;5041501;28;20207;-75
2022/03/25 06:09:39;;;;;;;41.60;23.03;;;7.20;99.90;;;;;;5045828;28;20224;-75
2022/03/25 06:12:07;;;;;;;41.37;23.10;;;7.20;99.90;;;;;;5045877;28;20253;-76
2022/03/25 06:14:34;;;;;;;38.30;23.37;;;7.30;99.90;;;;;;5045207;28;20228;-76
2022/03/25 06:17:01;;;;;;;38.37;24.00;;;7.40;99.90;;;;;;5044566;28;20207;-75
2022/03/25 06:19:28;;;;;;;40.50;23.37;;;7.40;99.90;;;;;;5049695;28;20207;-76
2022/03/25 06:21:57;;;;;;;40.57;23.50;;;7.50;99.90;;;;;;5041040;28;20231;-75
2022/03/25 06:24:24;;;;;;;42.30;23.87;;;7.70;99.90;;;;;;5043123;28;20299;-77
2022/03/25 06:26:52;;;;;;;41.13;24.03;;;7.70;99.90;;;;;;5044266;28;20733;-76
2022/03/25 06:29:19;;;;;;;38.87;23.30;;;7.90;99.90;;;;;;5044871;28;20223;-75
2022/03/25 06:31:46;;;;;;;38.10;23.67;;;8.00;99.90;;;;;;5047127;28;20627;-76
2022/03/25 06:34:13;;;;;;;42.10;24.27;;;8.10;99.90;;;;;;5050555;28;20227;-76
2022/03/25 06:36:40;;;;;;;42.90;24.53;;;8.20;99.90;;;;;;5040425;28;20200;-75
2022/03/25 06:39:08;;;;;;;42.40;24.57;;;8.20;99.90;;;;;;5035171;28;20300;-77
2022/03/25 06:41:35;;;;;;;44.73;24.37;;;8.40;99.90;;;;;;5042063;28;20224;-78
2022/03/25 06:44:02;;;;;;;43.00;23.80;;;8.50;99.90;;;;;;5048951;28;20297;-75
2022/03/25 06:46:29;;;;;;;39.20;24.17;;;8.60;99.90;;;;;;5042666;28;20216;-77
2022/03/25 06:48:57;;;;;;;41.97;23.57;;;8.80;99.90;;;;;;5047554;28;20238;-76
2022/03/25 06:51:24;;;;;;;42.90;24.23;;;8.80;99.90;;;;;;5036635;28;20223;-76
2022/03/25 06:53:51;;;;;;;39.57;23.70;;;9.10;99.90;;;;;;5051863;28;20300;-77
2022/03/25 06:56:21;;;;;;;39.03;24.07;;;9.40;99.90;;;;;;5053021;28;20235;-77
2022/03/25 06:58:48;;;;;;;42.77;25.10;;;9.80;99.90;;;;;;5053182;28;20705;-77
2022/03/25 07:01:16;;;;;;;40.70;24.50;;;10.20;99.90;;;;;;5053011;28;20239;-77
2022/03/25 07:03:44;;;;;;;37.43;24.47;;;10.60;99.90;;;;;;5053095;28;20289;-77
2022/03/25 07:06:11;;;;;;;40.13;24.03;;;10.90;99.90;;;;;;5045708;28;20283;-76
2022/03/25 07:08:40;;;;;;;39.90;24.57;;;11.20;99.90;;;;;;5032700;28;20288;-76
2022/03/25 07:11:07;;;;;;;42.77;25.13;;;11.50;99.90;;;;;;5032100;28;20275;-77
2022/03/25 07:13:36;;;;;;;41.00;26.37;;;11.90;99.90;;;;;;5041164;28;20705;-77
2022/03/25 07:16:04;;;;;;;38.10;25.17;;;12.40;99.90;;;;;;5038516;28;20206;-77
2022/03/25 07:18:32;;;;;;;39.97;25.83;;;12.50;99.90;;;;;;5049018;28;20203;-77
2022/03/25 07:21:00;;;;;;;37.90;25.83;;;12.80;99.90;;;;;;5040509;28;20228;-77
2022/03/25 07:23:27;;;;;;;40.10;25.53;;;13.20;99.90;;;;;;5049430;28;20215;-77
2022/03/25 07:25:54;;;;;;;41.07;25.30;;;13.40;99.90;;;;;;5047021;28;20223;-77
2022/03/25 07:28:21;;;;;;;35.87;24.87;;;13.20;99.90;;;;;;5048164;28;20286;-77
2022/03/25 07:30:49;;;;;;;37.63;25.80;;;13.20;99.90;;;;;;5050479;28;20313;-79
2022/03/25 07:33:16;;;;;;;38.03;25.67;;;13.80;99.90;;;;;;5050175;28;20204;-77
2022/03/25 07:35:43;;;;;;;37.33;26.17;;;14.00;99.90;;;;;;5051670;28;20203;-77
2022/03/25 07:38:10;;;;;;;36.70;26.43;;;14.10;97.40;;;;;;5051823;28;20295;-77
2022/03/25 07:40:37;;;;;;;40.67;26.87;;;14.40;93.70;;;;;;5051418;28;20235;-77
2022/03/25 07:43:04;;;;;;;37.07;26.07;;;14.40;92.40;;;;;;5052231;28;20235;-77
2022/03/25 07:45:31;;;;;;;37.10;26.63;;;14.80;91.20;;;;;;5051849;28;20227;-78
2022/03/25 07:47:59;;;;;;;38.00;26.13;;;14.90;91.80;;;;;;5052137;28;20287;-78
2022/03/25 07:50:26;;;;;;;35.47;25.93;;;15.20;94.70;;;;;;5051572;28;20319;-78
2022/03/25 07:52:53;;;;;;;34.07;25.87;;;15.40;92.40;;;;;;5051965;28;20287;-78
2022/03/25 07:55:21;;;;;;;34.35;26.15;;;15.90;82.80;;;;;;5043097;28;20199;-78
2022/03/25 07:57:49;;;;;;;38.25;26.80;;;16.10;84.50;;;;;;5051960;28;20739;-78
2022/03/25 08:00:17;;;;;;;35.22;26.27;;;16.10;81.60;;;;;;5048337;28;20314;-78
2022/03/25 08:02:45;;;;;;;36.97;26.23;;;16.40;77.10;;;;;;5051434;28;20232;-78
2022/03/25 08:05:15;;;;;;;33.88;26.17;;;16.50;71.70;;;;;;5051806;28;20200;-78
2022/03/25 08:07:48;;;;;;;34.38;25.77;;;16.80;74.20;;;;;;5051864;28;20609;-78
2022/03/25 08:10:17;;;;;;;35.60;25.98;;;16.70;72.00;;;;;;5047396;28;20203;-78
2022/03/25 08:12:45;;;;;;;36.83;25.30;;;16.80;68.90;;;;;;5049366;28;20678;-79
2022/03/25 08:15:13;;;;;;;36.67;26.33;;;17.30;57.50;;;;;;5051837;28;20290;-78
2022/03/25 08:17:51;;;;;;;35.20;26.55;;;17.50;49.90;;;;;;5051392;28;20215;-78
2022/03/25 08:20:28;;;;;;;37.85;26.65;;;17.70;34.70;;;;;;5051667;28;20290;-78
2022/03/25 08:22:57;;;;;;;34.17;25.77;;;17.60;26.60;;;;;;5050390;28;20261;-79
2022/03/25 08:28:08;;;;;;;38.47;25.35;;;17.50;25.40;;;;;;5049720;28;20288;-78
2022/03/25 08:30:36;;;;;;;37.58;26.85;;;17.70;28.50;;;;;;5040991;28;20771;-78
2022/03/25 08:33:04;;;;;;;33.50;26.02;;;17.90;34.10;;;;;;5050003;28;20265;-79
2022/03/25 08:35:33;;;;;;;33.17;26.17;;;17.60;32.10;;;;;;5055893;28;20239;-79
2022/03/25 08:38:00;;;;;;;37.53;25.55;;;18.20;24.80;;;;;;5055440;28;20234;-79
2022/03/25 08:40:30;;;;;;;35.75;27.13;;;17.90;17.80;;;;;;5055357;28;20231;-79
2022/03/25 08:42:57;;;;;;;35.15;25.98;;;18.10;24.20;;;;;;5053323;28;20231;-78
2022/03/25 08:45:24;;;;;;;37.65;26.30;;;18.30;28.60;;;;;;5048907;28;20278;-78
2022/03/25 08:47:51;;;;;;;35.83;26.02;;;18.10;19.60;;;;;;5042201;28;20242;-80
2022/03/25 08:50:19;;;;;;;34.35;26.10;;;18.40;14.90;;;;;;5055243;28;20207;-79
2022/03/25 08:52:48;;;;;;;34.85;26.02;;;19.20;16.60;;;;;;5055523;28;20227;-78
2022/03/25 08:55:15;;;;;;;34.85;24.63;;;18.70;12.60;;;;;;5055429;28;20302;-79
2022/03/25 08:57:43;;;;;;;38.13;26.02;;;19.20;13.40;;;;;;5043636;28;20664;-79
2022/03/25 09:00:12;;;;;;;35.42;26.48;;;19.30;9.40;;;;;;5035170;28;20252;-79
2022/03/25 09:02:39;;;;;;;35.65;26.08;;;18.80;1.20;;;;;;5034473;28;20626;-79
2022/03/25 09:05:07;;;;;;;36.20;25.17;;;18.60;3.80;;;;;;5035349;28;20204;-79
2022/03/25 09:07:36;;;;;;;36.92;26.30;;;19.10;4.40;;;;;;5048124;28;20671;-79
2022/03/25 09:10:05;;;;;;;36.33;26.33;;;19.50;1.00;;;;;;5051165;28;20215;-79
2022/03/25 09:12:32;;;;;;;36.50;26.23;;;18.80;1.70;;;;;;5034975;28;20240;-79
2022/03/25 09:14:59;;;;;;;35.40;24.63;;;18.40;2.90;;;;;;5043634;28;20203;-79
2022/03/25 09:17:29;;;;;;;35.88;25.55;;;18.40;3.90;;;;;;5050491;28;20655;-78
2022/03/25 09:19:56;;;;;;;37.95;25.38;;;18.40;5.40;;;;;;5055202;28;20232;-79
2022/03/25 09:22:23;;;;;;;33.88;24.40;;;18.60;4.80;;;;;;5040818;28;20192;-79
2022/03/25 09:24:50;;;;;;;35.53;25.42;;;18.80;4.70;;;;;;5041567;28;20654;-79
2022/03/25 09:27:18;;;;;;;39.28;25.48;;;18.90;1.00;;;;;;5035709;28;20274;-79
2022/03/25 09:29:45;;;;;;;36.28;25.85;;;18.70;6.20;;;;;;5037615;28;20660;-79
2022/03/25 09:32:12;;;;;;;35.90;24.63;;;19.40;4.20;;;;;;5052047;28;21046;-79
2022/03/25 09:37:26;;;;;;;34.30;25.63;;;19.80;1.00;;;;;;5054367;28;20202;-79
2022/03/25 09:39:53;;;;;;;36.47;25.42;;;19.50;1.00;;;;;;5053880;28;20223;-79
2022/03/25 09:42:51;;;;;;;34.58;24.50;;;19.70;1.10;;;;;;5051570;28;20238;-79
2022/03/25 09:45:19;;;;;;;34.22;24.00;;;19.90;6.00;;;;;;5044762;28;20214;-79
2022/03/25 09:47:48;;;;;;;36.00;25.58;;;20.70;1.00;;;;;;5050547;28;20203;-79
2022/03/25 09:50:17;;;;;;;34.03;25.25;;;20.30;1.00;;;;;;5047825;28;20259;-79
2022/03/25 09:52:45;;;;;;;36.13;25.17;;;19.80;1.00;;;;;;5053820;28;20254;-79
2022/03/25 09:55:13;;;;;;;34.83;25.95;;;20.00;1.00;;;;;;5045335;28;20228;-80
2022/03/25 09:57:41;;;;;;;39.67;25.50;;;20.60;1.00;;;;;;5036801;28;20216;-79
2022/03/25 10:00:14;;;;;;;36.35;25.67;;;20.40;1.00;;;;;;5041860;28;20584;-79
2022/03/25 10:02:42;;;;;;;36.78;25.33;;;20.50;1.00;;;;;;5053569;28;20589;-77
2022/03/25 10:05:16;;;;;;;35.85;25.73;;;21.00;1.40;;;;;;5053782;28;20287;-79
2022/03/25 10:07:48;;;;;;;36.58;25.98;;;21.60;1.00;;;;;;5043430;28;20192;-79
2022/03/25 10:10:17;;;;;;;35.80;25.73;;;21.10;1.00;;;;;;5047791;28;20254;-79
2022/03/25 10:12:46;;;;;;;35.35;25.75;;;21.50;1.00;;;;;;5041365;28;20232;-78
2022/03/25 10:15:20;;;;;;;40.92;26.25;;;21.60;1.00;;;;;;5052894;28;20253;-78
2022/03/25 10:17:56;;;;;;;30.90;24.50;;;20.60;1.00;;;;;;5045077;28;20209;-78
2022/03/25 10:20:25;;;;;;;33.35;24.50;;;21.50;1.00;;;;;;5046045;28;20200;-78
2022/03/25 10:23:05;;;;;;;33.35;24.30;;;21.70;1.00;;;;;;5046989;28;20279;-78
2022/03/25 10:25:40;;;;;;;32.50;24.10;;;21.70;1.00;;;;;;5039033;28;20702;-78
2022/03/25 10:28:20;;;;;;;34.85;25.00;;;21.60;1.00;;;;;;5053396;28;20207;-78
2022/03/25 10:30:51;;;;;;;35.30;23.63;;;21.80;1.00;;;;;;5033537;28;20207;-79
2022/03/25 10:33:29;;;;;;;34.53;24.45;;;21.10;1.00;;;;;;5034163;28;20288;-79
2022/03/25 10:36:07;;;;;;;37.00;24.92;;;21.90;1.00;;;;;;5035051;28;20200;-78
2022/03/25 10:38:46;;;;;;;35.83;25.50;;;21.40;1.00;;;;;;5052862;28;20199;-77
2022/03/25 10:41:15;;;;;;;33.75;24.65;;;21.00;1.00;;;;;;5048424;28;20192;-77
2022/03/25 10:43:53;;;;;;;35.13;25.05;;;21.10;1.00;;;;;;5043268;28;20224;-78
2022/03/25 10:46:33;;;;;;;35.45;25.90;;;21.40;1.00;;;;;;5044397;28;20586;-78
2022/03/25 10:49:03;;;;;;;35.78;24.95;;;21.00;1.00;;;;;;5052822;28;20706;-79
2022/03/25 10:51:30;;;;;;;36.35;26.27;;;21.50;1.00;;;;;;5045972;28;20747;-79
2022/03/25 10:53:58;;;;;;;40.20;25.10;;;21.10;1.00;;;;;;5052806;28;20203;-79
2022/03/25 10:56:26;;;;;;;33.17;24.05;;;21.50;1.00;;;;;;5051977;28;20275;-81
2022/03/25 10:58:54;;;;;;;36.53;25.67;;;21.30;1.00;;;;;;5052847;28;20223;-79
2022/03/25 11:01:21;;;;;;;35.47;25.60;;;21.60;1.00;;;;;;5052913;28;20615;-79
2022/03/25 11:03:52;;;;;;;33.78;24.88;;;21.90;1.00;;;;;;5052697;28;20371;-80
2022/03/25 11:06:22;;;;;;;34.92;25.00;;;22.30;1.00;;;;;;5053214;28;20195;-80
2022/03/25 11:08:49;;;;;;;34.78;25.63;;;22.30;1.00;;;;;;5052821;28;20228;-79
2022/03/25 11:11:17;;;;;;;34.00;24.65;;;22.30;1.00;;;;;;5052669;28;20322;-79
2022/03/25 11:13:45;;;;;;;32.88;24.02;;;21.90;1.00;;;;;;5052116;28;20715;-80
2022/03/25 11:16:16;;;;;;;33.42;25.30;;;21.80;1.00;;;;;;5043496;28;20223;-80
2022/03/25 11:18:44;;;;;;;34.00;24.40;;;21.40;1.00;;;;;;5033158;28;20400;-79
2022/03/25 11:21:13;;;;;;;33.58;23.55;;;21.20;1.00;;;;;;5032260;28;20196;-79
2022/03/25 11:23:46;;;;;;;33.33;23.88;;;21.80;1.00;;;;;;5032931;28;20212;-79
2022/03/25 11:26:15;;;;;;;32.08;23.83;;;23.20;1.00;;;;;;5032378;28;20291;-79
2022/03/25 11:28:43;;;;;;;36.03;25.42;;;23.00;1.00;;;;;;5032719;28;20197;-79
2022/03/25 11:31:10;;;;;;;33.63;24.13;;;21.70;1.00;;;;;;5032324;28;20278;-79
2022/03/25 11:34:07;;;;;;;31.92;24.52;;;22.00;1.00;;;;;;5032778;28;20236;-79
2022/03/25 11:36:36;;;;;;;33.90;23.48;;;23.00;1.00;;;;;;5032977;28;20232;-79
2022/03/25 11:39:21;;;;;;;33.50;23.42;;;22.70;1.00;;;;;;5032596;28;20703;-79
2022/03/25 11:41:48;;;;;;;37.08;24.55;;;22.40;1.00;;;;;;5032321;28;20200;-79
2022/03/25 11:44:20;;;;;;;35.40;23.80;;;21.90;1.00;;;;;;5051442;28;20203;-79
2022/03/25 11:47:16;;;;;;;30.15;22.80;;;22.40;1.00;;;;;;5052002;28;20300;-79
2022/03/25 11:49:43;;;;;;;33.75;24.55;;;23.00;1.00;;;;;;5052174;28;20231;-79
2022/03/25 11:52:31;;;;;;;34.30;22.92;;;23.30;1.00;;;;;;5051735;28;20233;-79
2022/03/25 11:54:59;;;;;;;28.33;22.05;;;22.70;1.00;;;;;;5051978;28;20258;-79
2022/03/25 11:57:29;;;;;;;29.67;20.60;;;23.00;1.00;;;;;;5051556;28;20739;-79
2022/03/25 11:59:57;;;;;;;28.38;19.95;;;22.80;1.00;;;;;;5052204;28;20219;-79
2022/03/25 12:02:26;;;;;;;27.08;20.95;;;23.20;1.00;;;;;;5051847;28;20199;-79
2022/03/25 12:04:54;;;;;;;28.65;20.55;;;22.70;1.00;;;;;;5052295;28;20290;-79
2022/03/25 12:07:21;;;;;;;26.20;19.90;;;22.50;1.00;;;;;;5063142;28;20285;-79
2022/03/25 12:09:49;;;;;;;30.60;20.55;;;22.60;1.00;;;;;;5071581;28;20234;-79
2022/03/25 12:12:16;;;;;;;25.63;19.80;;;22.60;1.00;;;;;;5071847;28;20234;-79
2022/03/25 12:15:10;;;;;;;29.23;20.13;;;22.20;1.00;;;;;;5071834;28;20683;-79
2022/03/25 12:17:38;;;;;;;28.30;20.58;;;22.00;1.00;;;;;;5071663;28;20275;-79
2022/03/25 12:20:06;;;;;;;27.15;19.92;;;21.70;1.00;;;;;;5071549;28;20199;-79
2022/03/25 12:22:41;;;;;;;25.90;19.48;;;21.80;1.00;;;;;;5071557;28;20226;-79
2022/03/25 12:25:22;;;;;;;26.58;20.02;;;22.60;1.00;;;;;;5071436;28;20234;-79
2022/03/25 12:27:53;;;;;;;30.08;20.30;;;23.20;1.00;;;;;;5071950;28;20195;-79
2022/03/25 12:30:21;;;;;;;30.60;19.92;;;22.80;1.00;;;;;;5071867;28;20256;-79
2022/03/25 12:32:48;;;;;;;28.60;21.23;;;22.70;1.00;;;;;;5071505;28;20587;-79
2022/03/25 12:35:17;;;;;;;28.83;20.70;;;22.50;1.00;;;;;;5071692;28;20245;-79
2022/03/25 12:38:20;;;;;;;29.95;21.50;;;22.20;1.00;;;;;;5055711;28;20204;-79
2022/03/25 12:40:50;;;;;;;31.58;21.10;;;22.10;1.00;;;;;;5078614;28;20274;-79
2022/03/25 12:43:17;;;;;;;27.85;20.75;;;22.60;1.00;;;;;;5051473;28;20196;-79
2022/03/25 12:45:45;;;;;;;28.27;20.30;;;22.30;1.00;;;;;;5055581;28;20286;-79
2022/03/25 12:48:16;;;;;;;30.73;21.05;;;21.90;1.00;;;;;;5031432;28;20286;-79